ΕΜΥ, Εθνική Μετεωρολογική Υπηρεσία - Δελτία Καιρού, Προγνώσεις

ΑΕΡΟΝΑΥΤΙΛΙΑ

GREEK AIRPORTS CODES

TAF LGMG 050400Z 0506/0515 VRB05KT 9999 FEW020 BECMG 0507/0509 18010KT PROB30 TEMPO 0512/0515 5000 SHRA FEW020CB SCT020=

EUROPEAN AIRPORTS CODES

TAF LGAV 050500Z 0506/0606 03010KT 9999 FEW025 BECMG 0515/0517 VRB05KT=